Time;durP1;ratioP1;P1;durP2;ratioP2;P2;SDS_P1;SDS_P2;PMS_P1;PMS_P2;Temp;Humidity;BMP_temperature;BMP_pressure;BME280_temperature;BME280_humidity;BME280_pressure;Samples;Min_cycle;Max_cycle;Signal;HPM_P1;HPM_P2
2022/04/04 00:00:09;;;;;;;8.25;3.50;;;;;;;4.60;74.70;101841.88;5036003;28;20169;-47
2022/04/04 00:02:37;;;;;;;5.50;3.35;;;;;;;4.59;74.42;101833.97;5037267;28;20411;-51
2022/04/04 00:05:06;;;;;;;5.72;3.50;;;;;;;4.57;74.68;101831.50;5036939;28;20128;-53
2022/04/04 00:07:33;;;;;;;5.65;3.40;;;;;;;4.57;74.46;101833.34;5035452;28;20076;-48
2022/04/04 00:10:02;;;;;;;6.85;3.53;;;;;;;4.55;74.59;101825.47;5036252;28;20046;-46
2022/04/04 00:12:30;;;;;;;8.68;4.05;;;;;;;4.53;74.66;101824.81;5018889;28;20034;-47
2022/04/04 00:14:58;;;;;;;7.88;3.88;;;;;;;4.53;74.62;101816.72;5035457;28;20068;-49
2022/04/04 00:17:25;;;;;;;7.90;3.88;;;;;;;4.51;74.62;101821.50;5036607;28;20049;-52
2022/04/04 00:19:53;;;;;;;9.45;4.15;;;;;;;4.50;74.35;101814.44;5035566;28;20045;-50
2022/04/04 00:22:21;;;;;;;7.88;4.10;;;;;;;4.49;74.39;101812.75;5035659;28;20049;-52
2022/04/04 00:24:49;;;;;;;8.43;3.88;;;;;;;4.48;74.22;101803.03;5035197;28;20120;-51
2022/04/04 00:27:16;;;;;;;7.43;3.83;;;;;;;4.44;74.62;101796.34;5036504;28;20049;-47
2022/04/04 00:29:44;;;;;;;6.72;3.97;;;;;;;4.44;74.13;101794.47;5035171;28;20045;-47
2022/04/04 00:32:12;;;;;;;6.28;3.50;;;;;;;4.44;73.97;101793.66;5035662;28;20041;-47
2022/04/04 00:34:40;;;;;;;6.20;3.47;;;;;;;4.44;73.74;101791.78;5034932;28;20037;-47
2022/04/04 00:37:08;;;;;;;7.05;3.78;;;;;;;4.44;73.89;101788.25;5036137;28;20033;-45
2022/04/04 00:39:35;;;;;;;8.00;4.25;;;;;;;4.43;74.22;101779.34;5036154;28;20454;-47
2022/04/04 00:42:03;;;;;;;6.32;4.10;;;;;;;4.43;73.71;101781.22;5036462;28;20396;-48
2022/04/04 00:44:31;;;;;;;8.13;4.15;;;;;;;4.42;73.87;101766.03;5035052;28;20128;-53
2022/04/04 00:46:58;;;;;;;7.43;4.00;;;;;;;4.42;73.89;101768.75;5048996;28;20037;-47
2022/04/04 00:49:26;;;;;;;7.80;4.32;;;;;;;4.40;74.16;101771.66;5055023;28;20450;-48
2022/04/04 00:51:55;;;;;;;7.85;3.78;;;;;;;4.39;73.72;101764.59;5055916;28;20079;-47
2022/04/04 00:54:22;;;;;;;7.47;4.50;;;;;;;4.39;74.02;101759.19;5041937;28;20073;-47
2022/04/04 00:56:50;;;;;;;10.45;4.60;;;;;;;4.40;73.64;101765.41;5034963;28;20064;-48
2022/04/04 00:59:18;;;;;;;9.18;4.63;;;;;;;4.41;73.57;101756.28;5037318;28;20037;-47
2022/04/04 01:01:46;;;;;;;8.52;4.57;;;;;;;4.40;73.86;101749.22;5034835;28;20454;-48
2022/04/04 01:04:16;;;;;;;6.72;3.97;;;;;;;4.40;73.81;101747.38;5042212;28;20119;-47
2022/04/04 01:06:43;;;;;;;7.88;4.50;;;;;;;4.40;73.66;101747.38;5054523;28;20107;-47
2022/04/04 01:09:14;;;;;;;7.20;3.97;;;;;;;4.40;73.26;101735.72;5054795;28;20096;-48
2022/04/04 01:12:07;;;;;;;5.38;3.80;;;;;;;4.40;73.46;101727.63;5053878;28;20041;-51
2022/04/04 01:14:36;;;;;;;6.95;4.32;;;;;;;4.37;73.20;101733.44;5048731;28;20046;-52
2022/04/04 01:17:05;;;;;;;7.90;4.78;;;;;;;4.34;73.02;101731.16;5035785;28;20052;-51
2022/04/04 01:19:33;;;;;;;8.50;4.28;;;;;;;4.31;72.95;101723.50;5034445;28;20046;-52
2022/04/04 01:22:08;;;;;;;11.15;5.10;;;;;;;4.29;73.34;101714.75;5034733;28;20928;-53
2022/04/04 01:24:38;;;;;;;7.68;4.90;;;;;;;4.27;72.76;101717.66;5046717;28;20047;-53
2022/04/04 01:27:10;;;;;;;7.78;4.97;;;;;;;4.25;73.00;101712.44;5062458;28;20052;-50
2022/04/04 01:29:38;;;;;;;9.70;5.00;;;;;;;4.26;73.13;101708.75;5061589;28;20051;-54
2022/04/04 01:32:07;;;;;;;7.50;4.43;;;;;;;4.23;73.05;101709.16;5048786;28;20063;-56
2022/04/04 01:34:36;;;;;;;9.07;5.22;;;;;;;4.21;73.13;101697.72;5063343;28;20041;-57
2022/04/04 01:37:04;;;;;;;9.43;4.93;;;;;;;4.22;72.64;101690.47;5064771;28;20048;-52
2022/04/04 01:39:32;;;;;;;8.07;4.88;;;;;;;4.22;72.54;101685.91;5064911;28;20052;-54
2022/04/04 01:42:00;;;;;;;10.30;5.40;;;;;;;4.19;72.93;101680.91;5058477;28;20052;-51
2022/04/04 01:44:28;;;;;;;8.05;4.90;;;;;;;4.19;72.28;101669.31;5044594;28;20041;-48
2022/04/04 01:46:55;;;;;;;9.05;5.07;;;;;;;4.21;72.14;101664.50;5054972;28;20534;-51
2022/04/04 01:49:23;;;;;;;8.73;4.85;;;;;;;4.20;72.38;101658.28;5037266;28;20128;-51
2022/04/04 01:51:51;;;;;;;8.45;5.30;;;;;;;4.21;71.96;101648.31;5053767;28;20086;-51
2022/04/04 01:54:18;;;;;;;11.35;5.40;;;;;;;4.19;72.00;101656.66;5053038;28;20044;-51
2022/04/04 01:56:46;;;;;;;7.18;4.15;;;;;;;4.21;72.20;101645.63;5052350;28;20041;-52
2022/04/04 01:59:14;;;;;;;9.93;5.03;;;;;;;4.21;71.59;101633.00;5053000;28;20037;-54
2022/04/04 02:01:42;;;;;;;10.98;5.47;;;;;;;4.21;71.93;101637.53;5042295;28;20555;-53
2022/04/04 02:04:11;;;;;;;7.57;4.70;;;;;;;4.20;71.36;101634.03;5034620;28;20052;-52
2022/04/04 02:06:39;;;;;;;9.55;5.00;;;;;;;4.18;70.94;101617.22;5034768;28;20068;-53
2022/04/04 02:09:07;;;;;;;10.05;4.75;;;;;;;4.18;70.97;101622.59;5035295;28;20087;-55
2022/04/04 02:11:35;;;;;;;10.20;5.15;;;;;;;4.17;71.08;101615.56;5039522;28;20055;-53
2022/04/04 02:14:03;;;;;;;9.77;4.90;;;;;;;4.18;70.81;101610.97;5036579;28;20041;-54
2022/04/04 02:16:31;;;;;;;9.60;5.35;;;;;;;4.15;70.28;101606.00;5054375;28;20492;-51
2022/04/04 02:18:59;;;;;;;8.57;4.85;;;;;;;4.16;70.63;101602.25;5053640;28;20098;-54
2022/04/04 02:21:27;;;;;;;9.30;4.72;;;;;;;4.14;70.20;101599.78;5053323;28;20049;-53
2022/04/04 02:23:54;;;;;;;9.25;5.25;;;;;;;4.16;70.00;101597.72;5033940;28;20085;-52
2022/04/04 02:26:22;;;;;;;9.73;5.03;;;;;;;4.19;69.82;101597.31;5034426;28;20037;-53
2022/04/04 02:28:50;;;;;;;7.85;5.07;;;;;;;4.17;69.73;101596.69;5035505;28;20049;-52
2022/04/04 02:31:18;;;;;;;8.40;4.72;;;;;;;4.16;69.83;101596.88;5033001;28;20124;-52
2022/04/04 02:33:46;;;;;;;8.23;4.95;;;;;;;4.15;69.61;101573.66;5032806;28;20459;-53
2022/04/04 02:36:13;;;;;;;8.73;4.90;;;;;;;4.18;69.58;101578.63;5034286;28;20048;-52
2022/04/04 02:38:41;;;;;;;9.85;4.57;;;;;;;4.21;70.13;101573.66;5040407;28;20045;-48
2022/04/04 02:41:09;;;;;;;9.02;4.97;;;;;;;4.20;69.82;101569.28;5052490;28;20048;-52
2022/04/04 02:43:36;;;;;;;7.93;4.68;;;;;;;4.21;70.13;101554.78;5036695;28;20099;-53
2022/04/04 02:46:04;;;;;;;9.93;5.47;;;;;;;4.19;69.73;101551.44;5038991;28;20045;-52
2022/04/04 02:48:32;;;;;;;8.68;4.70;;;;;;;4.19;69.82;101545.22;5050862;28;20052;-51
2022/04/04 02:51:01;;;;;;;11.02;5.22;;;;;;;4.19;69.48;101543.38;5053846;28;20044;-56
2022/04/04 02:53:28;;;;;;;7.00;3.78;;;;;;;4.22;70.05;101542.13;5049477;28;20044;-56
2022/04/04 02:58:42;;;;;;;7.20;4.40;;;;;;;4.20;70.41;101528.81;5045092;28;20064;-52
2022/04/04 03:01:09;;;;;;;7.60;4.63;;;;;;;4.18;70.27;101525.50;5033459;28;20041;-51
2022/04/04 03:03:38;;;;;;;9.55;4.65;;;;;;;4.18;70.65;101524.69;5046069;28;20087;-52
2022/04/04 03:06:05;;;;;;;9.90;5.20;;;;;;;4.19;70.51;101513.69;5053705;28;20144;-53
2022/04/04 03:08:33;;;;;;;6.80;4.18;;;;;;;4.20;70.70;101504.56;5049562;28;20054;-56
2022/04/04 03:11:00;;;;;;;8.30;4.47;;;;;;;4.22;70.56;101507.06;5032243;28;20052;-55
2022/04/04 03:13:29;;;;;;;8.10;4.85;;;;;;;4.23;70.94;101495.22;5033753;28;20112;-53
2022/04/04 03:15:57;;;;;;;8.52;4.35;;;;;;;4.23;70.75;101490.66;5032448;28;20402;-53
2022/04/04 03:18:25;;;;;;;8.90;4.78;;;;;;;4.19;70.76;101492.13;5040313;28;20049;-49
2022/04/04 03:20:54;;;;;;;10.93;4.45;;;;;;;4.24;71.76;101481.53;5052277;28;20087;-52
2022/04/04 03:23:22;;;;;;;8.75;5.00;;;;;;;4.22;71.23;101483.59;5037071;28;20059;-54
2022/04/04 03:25:50;;;;;;;9.07;4.28;;;;;;;4.24;71.46;101469.91;5048067;28;20045;-50
2022/04/04 03:28:18;;;;;;;7.10;4.07;;;;;;;4.21;71.64;101471.16;5050269;28;20033;-51
2022/04/04 03:30:47;;;;;;;7.97;4.72;;;;;;;4.22;71.80;101466.59;5038553;28;20456;-52
2022/04/04 03:33:15;;;;;;;8.10;4.53;;;;;;;4.21;71.61;101465.78;5033043;28;20500;-55
2022/04/04 03:35:43;;;;;;;8.55;4.35;;;;;;;4.16;71.87;101462.88;5031913;28;20476;-53
2022/04/04 03:38:12;;;;;;;9.73;4.63;;;;;;;4.14;72.01;101451.47;5040144;28;20045;-49
2022/04/04 03:40:40;;;;;;;7.25;4.35;;;;;;;4.17;71.52;101461.81;5052206;28;20041;-53
2022/04/04 03:43:08;;;;;;;8.00;4.80;;;;;;;4.16;72.31;101451.25;5053035;28;20056;-53
2022/04/04 03:45:37;;;;;;;7.63;4.72;;;;;;;4.13;72.04;101444.41;5052990;28;20041;-53
2022/04/04 03:48:05;;;;;;;7.18;4.05;;;;;;;4.19;72.27;101438.19;5051254;28;20037;-52
2022/04/04 03:50:32;;;;;;;7.53;3.90;;;;;;;4.27;73.21;101432.53;5037374;28;20428;-48
2022/04/04 03:53:00;;;;;;;7.47;4.47;;;;;;;4.25;72.90;101429.22;5032930;28;20052;-48
2022/04/04 03:55:33;;;;;;;8.25;4.35;;;;;;;4.22;72.47;101418.88;5031989;28;20415;-47
2022/04/04 03:58:02;;;;;;;8.00;4.30;;;;;;;4.20;72.29;101425.50;5031981;28;20407;-50
2022/04/04 04:00:30;;;;;;;8.90;4.30;;;;;;;4.18;72.85;101417.63;5036268;28;20041;-50
2022/04/04 04:02:58;;;;;;;8.10;4.75;;;;;;;4.15;72.76;101412.66;5053132;28;20045;-50
2022/04/04 04:05:25;;;;;;;8.38;4.68;;;;;;;4.13;72.80;101412.03;5053045;28;20056;-52
2022/04/04 04:07:53;;;;;;;8.80;4.13;;;;;;;4.14;72.78;101411.00;5051598;28;20041;-50
2022/04/04 04:10:21;;;;;;;9.40;4.30;;;;;;;4.14;73.25;101400.22;5046300;28;20029;-50
2022/04/04 04:12:49;;;;;;;8.77;4.05;;;;;;;4.14;73.35;101394.84;5032756;28;20048;-53
2022/04/04 04:15:20;;;;;;;8.75;4.50;;;;;;;4.13;72.74;101387.75;5031654;28;20307;-52
2022/04/04 04:17:52;;;;;;;8.25;4.50;;;;;;;4.14;73.30;101378.66;5032958;28;20052;-50
2022/04/04 04:20:20;;;;;;;8.82;4.68;;;;;;;4.17;73.24;101380.91;5037487;28;20045;-54
2022/04/04 04:22:54;;;;;;;8.48;5.00;;;;;;;4.15;73.38;101374.91;5052606;28;20427;-50
2022/04/04 04:25:24;;;;;;;6.50;3.90;;;;;;;4.13;73.24;101366.19;5051208;28;20391;-50
2022/04/04 04:27:52;;;;;;;7.75;4.25;;;;;;;4.14;73.73;101365.16;5051374;28;20103;-49
2022/04/04 04:30:20;;;;;;;8.57;4.40;;;;;;;4.17;74.22;101362.03;5043949;28;20518;-54
2022/04/04 04:32:50;;;;;;;9.80;4.63;;;;;;;4.21;74.61;101346.25;5034966;28;20521;-52
2022/04/04 04:35:19;;;;;;;8.82;4.43;;;;;;;4.18;74.44;101347.50;5052915;28;20128;-54
2022/04/04 04:37:47;;;;;;;11.18;4.82;;;;;;;4.21;74.61;101347.09;5051434;28;20056;-53
2022/04/04 04:40:14;;;;;;;9.02;4.75;;;;;;;4.22;75.01;101337.94;5054220;28;20073;-50
2022/04/04 04:42:44;;;;;;;8.88;4.28;;;;;;;4.23;75.09;101318.03;5056349;28;20041;-52
2022/04/04 04:45:12;;;;;;;9.18;4.90;;;;;;;4.26;75.05;101327.56;5054980;28;20053;-55
2022/04/04 04:47:40;;;;;;;11.32;5.00;;;;;;;4.20;74.63;101323.03;5056551;28;20072;-51
2022/04/04 04:50:12;;;;;;;7.63;4.72;;;;;;;4.20;74.37;101314.94;5053942;28;20388;-53
2022/04/04 04:52:41;;;;;;;8.50;4.63;;;;;;;4.22;75.12;101313.69;5066605;28;20041;-55
2022/04/04 04:55:10;;;;;;;8.00;4.65;;;;;;;4.25;75.44;101310.53;5049170;28;20053;-56
2022/04/04 04:57:39;;;;;;;10.90;4.47;;;;;;;4.22;74.65;101310.16;5036976;28;20121;-52
2022/04/04 05:00:10;;;;;;;9.88;4.97;;;;;;;4.19;75.15;101306.03;5037207;28;20033;-52
2022/04/04 05:02:38;;;;;;;9.75;5.28;;;;;;;4.17;75.20;101308.09;5047651;28;20048;-52
2022/04/04 05:05:06;;;;;;;10.07;4.63;;;;;;;4.21;75.40;101297.69;5038771;28;20561;-49
2022/04/04 05:07:34;;;;;;;8.50;4.10;;;;;;;4.25;75.61;101294.34;5034406;28;20104;-46
2022/04/04 05:10:02;;;;;;;8.05;4.22;;;;;;;4.30;76.32;101284.81;5035830;28;20048;-47
2022/04/04 05:12:30;;;;;;;11.98;4.80;;;;;;;4.32;76.06;101282.72;5054217;28;20125;-44
2022/04/04 05:14:57;;;;;;;9.65;5.40;;;;;;;4.29;75.60;101288.56;5054245;28;20483;-46
2022/04/04 05:17:25;;;;;;;9.60;5.07;;;;;;;4.30;75.83;101274.00;5055260;28;20515;-47
2022/04/04 05:19:58;;;;;;;9.65;5.43;;;;;;;4.24;75.07;101260.34;5055508;28;20044;-47
2022/04/04 05:22:26;;;;;;;10.52;5.53;;;;;;;4.19;75.45;101256.66;5039543;28;20056;-43
2022/04/04 05:24:53;;;;;;;11.82;5.80;;;;;;;4.13;75.86;101260.19;5035315;28;20049;-43
2022/04/04 05:27:21;;;;;;;12.55;5.97;;;;;;;4.09;76.53;101245.47;5035528;28;20077;-43
2022/04/04 05:29:49;;;;;;;10.55;5.05;;;;;;;4.10;76.85;101245.28;5035361;28;20044;-46
2022/04/04 05:32:16;;;;;;;7.22;4.22;;;;;;;4.37;78.07;101245.97;5053594;28;20423;-46
2022/04/04 05:34:44;;;;;;;6.03;2.63;;;;;;;4.47;79.68;101240.09;5055071;28;20077;-50
2022/04/04 05:37:12;;;;;;;8.20;4.35;;;;;;;4.71;81.06;101235.78;5039500;28;20132;-49
2022/04/04 05:39:40;;;;;;;6.45;4.05;;;;;;;4.65;78.84;101233.97;5035116;28;20048;-49
2022/04/04 05:42:08;;;;;;;7.10;3.70;;;;;;;4.67;80.62;101235.41;5043390;28;20056;-47
2022/04/04 05:44:35;;;;;;;8.05;4.32;;;;;;;4.67;79.18;101215.69;5054982;28;20434;-47
2022/04/04 05:47:04;;;;;;;10.15;5.10;;;;;;;4.82;80.09;101218.06;5054252;28;20041;-54
2022/04/04 05:49:31;;;;;;;9.07;5.72;;;;;;;4.83;79.20;101214.28;4339421;28;10000414;-49
2022/04/04 05:51:59;;;;;;;12.15;5.30;;;;;;;5.13;80.42;101203.66;5048951;28;20049;-49
2022/04/04 05:54:30;;;;;;;10.60;5.40;;;;;;;4.97;77.90;101205.03;5051243;28;20610;-45
2022/04/04 05:56:57;;;;;;;6.32;3.55;;;;;;;4.99;82.42;101197.53;5051403;28;20040;-49
2022/04/04 05:59:25;;;;;;;9.18;4.60;;;;;;;5.01;79.09;101197.34;5051445;28;20506;-50
2022/04/04 06:01:54;;;;;;;12.77;6.15;;;;;;;4.83;77.75;101195.41;5041346;28;20423;-49
2022/04/04 06:04:22;;;;;;;4.97;2.53;;;;;;;5.01;83.47;101179.25;5051403;28;20057;-47
2022/04/04 06:06:49;;;;;;;12.20;6.32;;;;;;;4.76;77.68;101178.44;5051369;28;20052;-50
2022/04/04 06:09:17;;;;;;;12.95;6.57;;;;;;;4.81;78.58;101174.03;5051097;28;20102;-45
2022/04/04 06:11:44;;;;;;;11.55;6.15;;;;;;;4.79;77.50;101170.72;5041465;28;20036;-49
2022/04/04 06:14:12;;;;;;;9.55;5.10;;;;;;;4.74;78.26;101167.88;5031372;28;20044;-51
2022/04/04 06:16:40;;;;;;;9.35;5.05;;;;;;;4.73;78.69;101173.47;5031138;28;20127;-53
2022/04/04 06:19:10;;;;;;;11.90;6.70;;;;;;;4.87;79.37;101172.31;5031006;28;20561;-49
2022/04/04 06:21:38;;;;;;;10.80;5.38;;;;;;;5.32;82.92;101164.81;5031183;28;20067;-50
2022/04/04 06:24:06;;;;;;;12.38;6.13;;;;;;;5.03;78.17;101155.56;5029615;28;20049;-50
2022/04/04 06:26:33;;;;;;;11.23;5.70;;;;;;;4.91;77.92;101157.34;5013327;28;20046;-50
2022/04/04 06:29:01;;;;;;;12.07;6.97;;;;;;;5.03;81.33;101144.75;5040731;28;20051;-53
2022/04/04 06:31:29;;;;;;;11.40;6.15;;;;;;;5.04;78.69;101141.00;5048960;28;20041;-50
2022/04/04 06:33:56;;;;;;;16.65;7.50;;;;;;;5.76;90.53;101146.59;5050665;28;20476;-51
2022/04/04 06:36:26;;;;;;;12.98;6.55;;;;;;;5.55;78.27;101142.50;5050620;28;20041;-48
2022/04/04 06:38:54;;;;;;;10.80;5.45;;;;;;;5.31;75.79;101130.72;5043913;28;20053;-49
2022/04/04 06:41:22;;;;;;;12.68;5.82;;;;;;;5.20;77.64;101130.66;5037898;28;20052;-50
2022/04/04 06:43:52;;;;;;;9.52;5.15;;;;;;;5.11;76.74;101125.53;5050402;28;20051;-50
2022/04/04 06:46:20;;;;;;;12.20;6.65;;;;;;;4.98;74.48;101120.28;5050551;28;20044;-51
2022/04/04 06:48:50;;;;;;;11.23;6.00;;;;;;;4.99;74.94;101118.41;5043617;28;20128;-50
2022/04/04 06:51:19;;;;;;;9.48;5.90;;;;;;;4.82;74.17;101112.78;5046824;28;20041;-50
2022/04/04 06:53:47;;;;;;;12.30;6.70;;;;;;;4.71;74.22;101103.50;5052927;28;20128;-50
2022/04/04 06:56:15;;;;;;;9.65;5.75;;;;;;;4.79;74.44;101105.13;5053436;28;20055;-53
2022/04/04 06:58:42;;;;;;;11.85;5.70;;;;;;;4.87;75.23;101110.22;5011734;28;20041;-50
2022/04/04 07:01:12;;;;;;;9.60;5.90;;;;;;;4.96;73.82;101094.56;5041939;28;20404;-53
2022/04/04 07:03:40;;;;;;;9.02;4.38;;;;;;;5.04;75.02;101092.38;5052872;28;20079;-50
2022/04/04 07:06:10;;;;;;;11.63;6.05;;;;;;;5.22;77.17;101082.63;5053509;28;20161;-50
2022/04/04 07:08:37;;;;;;;10.15;4.35;;;;;;;5.47;80.52;101074.44;5051823;28;20061;-48
2022/04/04 07:11:08;;;;;;;5.93;3.25;;;;;;;5.60;82.92;101068.00;5048677;28;20049;-50
2022/04/04 07:13:36;;;;;;;10.35;5.57;;;;;;;5.61;75.97;101070.50;5015863;28;20041;-48
2022/04/04 07:16:04;;;;;;;9.07;5.25;;;;;;;5.32;74.50;101058.63;5033453;28;20056;-48
2022/04/04 07:18:38;;;;;;;14.55;5.80;;;;;;;5.30;75.05;101061.53;5033495;28;20042;-49
2022/04/04 07:21:05;;;;;;;6.72;3.17;;;;;;;5.32;78.64;101064.03;5040613;28;20045;-49
2022/04/04 07:23:33;;;;;;;9.13;5.47;;;;;;;5.26;74.32;101059.50;5033114;28;20403;-49
2022/04/04 07:26:01;;;;;;;10.88;5.70;;;;;;;5.27;74.11;101053.06;5032976;28;20484;-51
2022/04/04 07:28:29;;;;;;;9.02;5.65;;;;;;;5.28;74.52;101041.19;5033175;28;20510;-48
2022/04/04 07:30:57;;;;;;;11.25;5.18;;;;;;;5.35;76.82;101044.66;5043719;28;20033;-51
2022/04/04 07:33:25;;;;;;;12.50;4.80;;;;;;;5.72;78.55;101044.53;5053080;28;20064;-49
2022/04/04 07:35:53;;;;;;;10.13;5.68;;;;;;;5.45;73.46;101039.50;5050526;28;20047;-49
2022/04/04 07:38:21;;;;;;;10.60;5.00;;;;;;;5.41;74.58;101042.91;5037697;28;20045;-50
2022/04/04 07:40:49;;;;;;;14.63;6.22;;;;;;;5.37;74.43;101036.31;5035564;28;20092;-48
2022/04/04 07:43:17;;;;;;;12.70;6.00;;;;;;;5.38;74.31;101038.78;5033706;28;20052;-47
2022/04/04 07:45:45;;;;;;;12.93;6.20;;;;;;;5.40;74.59;101033.97;5039917;28;20046;-49
2022/04/04 07:48:13;;;;;;;10.95;6.00;;;;;;;5.42;74.26;101021.06;5035982;28;20046;-51
2022/04/04 07:50:43;;;;;;;14.70;5.97;;;;;;;5.74;75.71;101021.63;5045979;28;20037;-50
2022/04/04 07:53:12;;;;;;;11.65;5.90;;;;;;;5.84;73.51;100993.22;5037131;28;20377;-49
2022/04/04 07:55:40;;;;;;;15.10;6.60;;;;;;;5.58;73.12;100994.44;5034500;28;20052;-48
2022/04/04 07:58:08;;;;;;;13.18;6.97;;;;;;;5.42;73.50;100990.53;5034658;28;20053;-48
2022/04/04 08:00:38;;;;;;;25.17;8.35;;;;;;;5.75;76.24;100990.84;5032852;28;20133;-50
2022/04/04 08:03:05;;;;;;;15.80;6.60;;;;;;;5.74;73.40;100988.38;5038729;28;21864;-49
2022/04/04 08:05:33;;;;;;;19.00;7.55;;;;;;;5.64;73.32;100983.53;5030379;28;20046;-51
2022/04/04 08:08:01;;;;;;;16.38;6.85;;;;;;;5.71;74.25;100975.31;5034498;28;20140;-49
2022/04/04 08:10:29;;;;;;;10.93;6.20;;;;;;;5.66;73.35;100977.91;5033766;28;20048;-50
2022/04/04 08:12:56;;;;;;;29.08;9.48;;;;;;;6.08;77.23;100965.16;5039523;28;20048;-50
2022/04/04 08:15:24;;;;;;;20.63;7.72;;;;;;;6.34;75.90;100955.75;5038457;28;20041;-49
2022/04/04 08:17:56;;;;;;;13.57;6.45;;;;;;;6.33;73.14;100951.41;5044147;28;20116;-52
2022/04/04 08:20:24;;;;;;;13.57;6.53;;;;;;;6.15;72.75;100951.53;5058265;28;20028;-52
2022/04/04 08:22:52;;;;;;;25.63;8.35;;;;;;;6.10;73.82;100937.88;5053587;28;20041;-49
2022/04/04 08:25:20;;;;;;;20.73;7.20;;;;;;;6.13;76.43;100932.00;5050155;28;20056;-50
2022/04/04 08:27:47;;;;;;;21.17;8.18;;;;;;;6.25;72.61;100924.69;5052546;28;20037;-54
2022/04/04 08:30:17;;;;;;;24.92;8.85;;;;;;;6.21;75.22;100945.19;5058575;28;20067;-52
2022/04/04 08:32:45;;;;;;;19.60;7.10;;;;;;;6.17;72.82;100925.06;5031114;28;20052;-52
2022/04/04 08:35:14;;;;;;;16.23;6.63;;;;;;;6.07;72.72;100922.94;5035258;28;20502;-49
2022/04/04 08:37:43;;;;;;;25.58;7.85;;;;;;;6.31;74.09;100907.53;5049002;28;20040;-51
2022/04/04 08:40:13;;;;;;;12.90;6.32;;;;;;;6.27;70.72;100910.94;5039661;28;20040;-50
2022/04/04 08:42:41;;;;;;;11.48;6.32;;;;;;;6.14;70.92;100903.91;5038376;28;20041;-50
2022/04/04 08:45:09;;;;;;;14.32;6.22;;;;;;;6.28;71.01;100894.47;5036567;28;20045;-52
2022/04/04 08:47:37;;;;;;;17.55;6.95;;;;;;;6.67;73.82;100894.75;5049559;28;20045;-50
2022/04/04 08:50:05;;;;;;;18.38;6.30;;;;;;;6.54;70.66;100889.59;5041784;28;20045;-50
2022/04/04 08:52:33;;;;;;;13.93;6.43;;;;;;;6.22;70.14;100887.28;5033692;28;20045;-50
2022/04/04 08:55:00;;;;;;;22.77;8.05;;;;;;;6.47;75.61;100878.91;5040152;28;20049;-48
2022/04/04 08:57:28;;;;;;;14.13;5.45;;;;;;;6.30;71.29;100900.47;5040477;28;20048;-50
2022/04/04 08:59:55;;;;;;;20.40;6.13;;;;;;;6.36;70.19;100893.28;5039354;28;20067;-49
2022/04/04 09:02:23;;;;;;;16.95;5.78;;;;;;;6.32;71.32;100909.16;5041673;28;20033;-48
2022/04/04 09:04:52;;;;;;;12.95;6.25;;;;;;;6.36;70.75;100871.63;5044749;28;20041;-53
2022/04/04 09:07:21;;;;;;;12.68;6.45;;;;;;;6.21;71.32;100880.25;5032919;28;20036;-51
2022/04/04 09:09:53;;;;;;;11.38;5.68;;;;;;;6.12;71.82;100873.56;5035235;28;20053;-48
2022/04/04 09:12:22;;;;;;;14.18;6.28;;;;;;;6.28;72.30;100875.53;5041229;28;20055;-46
2022/04/04 09:14:56;;;;;;;11.95;6.30;;;;;;;6.18;72.46;100864.47;5039691;28;20288;-51
2022/04/04 09:17:27;;;;;;;13.10;6.03;;;;;;;6.28;72.40;100856.59;5031906;28;20067;-48
2022/04/04 09:19:55;;;;;;;11.25;6.70;;;;;;;6.14;72.77;100871.44;5038185;28;20051;-49
2022/04/04 09:22:23;;;;;;;14.23;6.03;;;;;;;6.06;73.55;100861.81;5020384;28;20049;-48
2022/04/04 09:24:56;;;;;;;15.13;6.85;;;;;;;5.94;74.85;100863.69;5042723;28;20555;-48
2022/04/04 09:27:26;;;;;;;13.02;6.65;;;;;;;5.87;75.87;100852.13;5047027;28;20095;-49
2022/04/04 09:30:04;;;;;;;14.63;6.50;;;;;;;6.00;76.15;100851.13;5032911;28;20096;-48
2022/04/04 09:32:40;;;;;;;13.48;5.45;;;;;;;6.28;77.76;100843.06;5045661;28;20079;-49
2022/04/04 09:35:11;;;;;;;16.27;6.87;;;;;;;6.20;77.85;100862.34;5034027;28;20033;-50
2022/04/04 09:37:46;;;;;;;14.75;6.43;;;;;;;6.25;78.54;100848.94;5037052;28;20120;-50
2022/04/04 09:40:24;;;;;;;14.30;6.55;;;;;;;6.32;78.03;100840.69;5040673;28;20060;-49
2022/04/04 09:42:53;;;;;;;12.48;6.72;;;;;;;6.39;78.67;100833.25;5044354;28;20455;-49
2022/04/04 09:45:24;;;;;;;13.85;6.65;;;;;;;6.51;79.47;100844.06;5037164;28;20040;-49
2022/04/04 09:47:56;;;;;;;15.27;7.13;;;;;;;6.19;80.48;100836.38;5042570;28;20548;-51
2022/04/04 09:50:48;;;;;;;15.63;6.15;;;;;;;6.03;81.76;100839.81;5016120;28;20516;-50
2022/04/04 09:53:21;;;;;;;16.77;6.57;;;;;;;6.07;81.97;100847.22;5037432;28;20037;-49
2022/04/04 09:55:52;;;;;;;11.98;6.20;;;;;;;6.09;81.65;100822.66;5039310;28;20060;-52
2022/04/04 09:58:21;;;;;;;14.57;5.45;;;;;;;6.33;82.37;100839.66;5038996;28;20041;-49
2022/04/04 10:00:50;;;;;;;13.18;6.63;;;;;;;6.15;81.87;100827.09;5039264;28;20076;-49
2022/04/04 10:03:20;;;;;;;13.05;6.68;;;;;;;6.39;81.25;100815.13;5036647;28;20044;-51
2022/04/04 10:06:00;;;;;;;12.73;6.32;;;;;;;6.25;82.43;100821.88;5042142;28;20479;-52
2022/04/04 10:08:28;;;;;;;13.27;5.32;;;;;;;6.32;84.45;100821.75;5040535;28;20051;-50
2022/04/04 10:10:56;;;;;;;12.85;6.80;;;;;;;6.06;84.09;100812.28;5034040;28;20576;-50
2022/04/04 10:13:24;;;;;;;13.27;6.95;;;;;;;5.86;85.62;100808.06;5045512;28;20041;-49
2022/04/04 10:15:53;;;;;;;14.70;7.80;;;;;;;5.77;87.10;100812.16;5016551;28;20045;-50
2022/04/04 10:18:21;;;;;;;18.13;7.40;;;;;;;5.76;87.43;100802.44;5060221;28;20132;-48
2022/04/04 10:20:57;;;;;;;13.00;7.03;;;;;;;5.77;88.26;100793.25;5038990;28;20037;-51
2022/04/04 10:23:26;;;;;;;14.70;7.35;;;;;;;5.76;88.59;100797.03;5035379;28;20042;-50
2022/04/04 10:25:58;;;;;;;12.98;7.38;;;;;;;5.76;88.91;100791.59;5037512;28;20057;-52
2022/04/04 10:28:34;;;;;;;12.70;6.97;;;;;;;5.78;89.69;100796.78;5026225;28;20052;-48
2022/04/04 10:31:13;;;;;;;18.48;9.23;;;;;;;5.84;89.87;100788.53;5032137;28;20049;-51
2022/04/04 10:33:42;;;;;;;12.35;6.93;;;;;;;5.82;89.60;100796.09;5033860;28;20127;-51
2022/04/04 10:36:11;;;;;;;11.85;7.00;;;;;;;5.87;90.29;100798.91;5036280;28;20041;-50
2022/04/04 10:38:50;;;;;;;13.48;7.32;;;;;;;6.00;89.90;100786.19;5046915;28;20043;-49
2022/04/04 10:41:20;;;;;;;18.23;9.43;;;;;;;6.00;90.73;100780.78;5032023;28;20049;-50
2022/04/04 10:43:51;;;;;;;15.35;8.32;;;;;;;6.02;91.16;100803.03;5032966;28;20049;-52
2022/04/04 10:46:22;;;;;;;18.10;9.27;;;;;;;6.04;92.54;100781.94;5032044;28;20095;-48
2022/04/04 10:48:54;;;;;;;11.80;6.63;;;;;;;6.15;92.16;100783.81;5045650;28;20127;-49
2022/04/04 10:51:31;;;;;;;10.88;6.63;;;;;;;6.01;92.36;100782.44;5032656;28;20041;-48
2022/04/04 10:54:02;;;;;;;16.70;8.10;;;;;;;5.99;93.41;100763.75;4346572;28;10000257;-49
2022/04/04 10:56:41;;;;;;;14.40;7.68;;;;;;;6.19;92.74;100769.56;5032638;28;20566;-50
2022/04/04 10:59:15;;;;;;;14.00;6.97;;;;;;;6.11;93.85;100763.69;5019835;28;20043;-49
2022/04/04 11:01:45;;;;;;;16.67;8.60;;;;;;;6.18;94.64;100757.09;5029809;28;20506;-49
2022/04/04 11:04:27;;;;;;;25.75;14.07;;;;;;;6.19;94.81;100741.69;5031770;28;20483;-49
2022/04/04 11:10:06;;;;;;;16.75;9.13;;;;;;;6.26;94.96;100739.66;5028058;28;20401;-48
2022/04/04 11:12:56;;;;;;;14.00;7.97;;;;;;;6.26;94.74;100746.97;5038151;28;20049;-51
2022/04/04 11:15:49;;;;;;;11.50;6.38;;;;;;;6.30;94.90;100746.25;5038600;28;20455;-49
2022/04/04 11:18:17;;;;;;;10.25;6.05;;;;;;;6.29;95.10;100747.28;5032980;28;20044;-50
2022/04/04 11:21:01;;;;;;;27.67;12.85;;;;;;;6.28;95.61;100731.31;5035905;28;20486;-52
2022/04/04 11:23:34;;;;;;;10.27;5.68;;;;;;;6.14;96.17;100733.47;5038395;28;20045;-51
2022/04/04 11:26:08;;;;;;;13.05;5.97;;;;;;;6.03;96.98;100731.63;5034502;28;20507;-47
2022/04/04 11:28:38;;;;;;;12.75;6.88;;;;;;;5.98;98.09;100741.28;5032533;28;20051;-49
2022/04/04 11:31:11;;;;;;;10.48;5.28;;;;;;;5.97;98.41;100736.94;5040488;28;20131;-50
2022/04/04 11:33:51;;;;;;;8.35;5.43;;;;;;;6.06;97.80;100731.97;5033019;28;20041;-49
2022/04/04 11:36:23;;;;;;;12.30;6.20;;;;;;;6.38;96.76;100716.06;5030029;28;20033;-49
2022/04/04 11:38:56;;;;;;;18.83;9.32;;;;;;;6.40;96.88;100727.50;5033261;28;20049;-51
2022/04/04 11:41:24;;;;;;;10.70;5.88;;;;;;;6.35;96.51;100715.72;5037926;28;20111;-49
2022/04/04 11:43:53;;;;;;;7.20;4.55;;;;;;;6.34;96.68;100723.03;5032202;28;20488;-49